Time;durP1;ratioP1;P1;durP2;ratioP2;P2;SDS_P1;SDS_P2;PMS_P1;PMS_P2;Temp;Humidity;BMP_temperature;BMP_pressure;BME280_temperature;BME280_humidity;BME280_pressure;Samples;Min_cycle;Max_cycle;Signal;HPM_P1;HPM_P2
2022/09/30 00:00:32;;;;;;;1.08;0.40;;;8.20;99.90;;;;;;5055449;28;20048;-68
2022/09/30 00:02:58;;;;;;;2.80;0.35;;;8.20;99.90;;;;;;5055491;28;20048;-68
2022/09/30 00:05:24;;;;;;;4.47;0.50;;;8.10;99.90;;;;;;5057384;28;20120;-68
2022/09/30 00:07:50;;;;;;;2.30;0.40;;;8.10;99.90;;;;;;5055413;28;20033;-68
2022/09/30 00:10:17;;;;;;;3.00;0.60;;;8.10;99.90;;;;;;5055087;28;20041;-68
2022/09/30 00:12:43;;;;;;;2.05;0.35;;;8.10;99.90;;;;;;5069534;28;20033;-68
2022/09/30 00:15:09;;;;;;;1.42;0.47;;;8.20;99.90;;;;;;5054152;28;20455;-68
2022/09/30 00:17:35;;;;;;;0.57;0.45;;;8.30;99.90;;;;;;5053354;28;20048;-68
2022/09/30 00:20:04;;;;;;;0.40;0.35;;;8.40;99.90;;;;;;5055341;28;20091;-68
2022/09/30 00:22:30;;;;;;;1.55;0.85;;;8.40;99.90;;;;;;5055227;28;20376;-68
2022/09/30 00:25:02;;;;;;;0.90;0.50;;;8.40;99.90;;;;;;5055475;28;20040;-68
2022/09/30 00:27:30;;;;;;;1.38;0.55;;;8.40;99.90;;;;;;5055001;28;20033;-68
2022/09/30 00:29:56;;;;;;;1.38;0.40;;;8.40;99.90;;;;;;5054817;28;20044;-68
2022/09/30 00:32:24;;;;;;;0.57;0.40;;;8.40;99.90;;;;;;5056951;28;20500;-68
2022/09/30 00:34:49;;;;;;;1.98;0.50;;;8.40;99.90;;;;;;5056979;28;20036;-68
2022/09/30 00:37:15;;;;;;;1.10;0.40;;;8.30;99.90;;;;;;5055130;28;20048;-68
2022/09/30 00:39:43;;;;;;;0.90;0.40;;;8.20;99.90;;;;;;5054718;28;20484;-68
2022/09/30 00:42:14;;;;;;;2.83;0.80;;;8.10;99.90;;;;;;5054856;28;20041;-68
2022/09/30 00:44:50;;;;;;;0.80;0.50;;;8.10;99.90;;;;;;5055531;28;20048;-68
2022/09/30 00:47:35;;;;;;;2.50;0.77;;;8.20;99.90;;;;;;5055066;28;20052;-69
2022/09/30 00:50:10;;;;;;;1.48;0.43;;;8.20;99.90;;;;;;5055086;28;20374;-68
2022/09/30 00:52:36;;;;;;;2.05;0.68;;;8.30;99.90;;;;;;5056224;28;20043;-69
2022/09/30 00:55:07;;;;;;;1.38;0.60;;;8.40;99.90;;;;;;5056532;28;20037;-68
2022/09/30 00:57:34;;;;;;;5.10;0.63;;;8.30;99.90;;;;;;5056529;28;20052;-69
2022/09/30 01:00:00;;;;;;;1.25;0.50;;;8.30;99.90;;;;;;5056560;28;20037;-68
2022/09/30 01:02:26;;;;;;;1.38;0.60;;;8.30;99.90;;;;;;5056524;28;20079;-69
2022/09/30 01:04:53;;;;;;;2.28;0.80;;;8.40;99.90;;;;;;5056668;28;20061;-69
2022/09/30 01:07:22;;;;;;;1.23;0.60;;;8.40;99.90;;;;;;5055256;28;20051;-69
2022/09/30 01:09:48;;;;;;;1.45;0.85;;;8.40;99.90;;;;;;5056460;28;20037;-68
2022/09/30 01:12:22;;;;;;;2.85;0.40;;;8.40;99.90;;;;;;5056336;28;20048;-68
2022/09/30 01:14:52;;;;;;;0.40;0.40;;;8.50;99.90;;;;;;5056346;28;20062;-69
2022/09/30 01:17:18;;;;;;;2.97;0.98;;;8.50;99.90;;;;;;5054981;28;20507;-69
2022/09/30 01:20:02;;;;;;;2.30;0.75;;;8.50;99.90;;;;;;5056347;28;20033;-68
2022/09/30 01:22:28;;;;;;;3.15;0.85;;;8.50;99.90;;;;;;5054867;28;20033;-69
2022/09/30 01:25:31;;;;;;;2.05;0.50;;;8.50;99.90;;;;;;5056120;28;20037;-68
2022/09/30 01:28:08;;;;;;;1.35;0.43;;;8.50;99.90;;;;;;5054078;28;20040;-68
2022/09/30 01:31:16;;;;;;;2.97;0.82;;;8.50;99.90;;;;;;5055897;28;20036;-68
2022/09/30 01:34:02;;;;;;;1.17;0.70;;;8.50;99.90;;;;;;5055878;28;20128;-68
2022/09/30 01:36:36;;;;;;;0.50;0.50;;;8.50;99.90;;;;;;5054552;28;20068;-69
2022/09/30 01:39:11;;;;;;;1.75;0.70;;;8.50;99.90;;;;;;5055956;28;20098;-68
2022/09/30 01:42:03;;;;;;;5.45;0.75;;;8.50;99.90;;;;;;5054487;28;20370;-69
2022/09/30 01:44:53;;;;;;;1.55;0.63;;;8.50;99.90;;;;;;5055856;28;20065;-68
2022/09/30 01:47:30;;;;;;;2.05;0.77;;;8.50;99.90;;;;;;5055884;28;20174;-68
2022/09/30 01:50:15;;;;;;;3.45;0.57;;;8.50;99.90;;;;;;5055771;28;20111;-68
2022/09/30 01:52:53;;;;;;;0.95;0.52;;;8.50;99.90;;;;;;5055750;28;20528;-68
2022/09/30 01:55:26;;;;;;;5.90;0.80;;;8.50;99.90;;;;;;5055677;28;20041;-68
2022/09/30 01:58:07;;;;;;;0.85;0.55;;;8.40;99.90;;;;;;5055536;28;20055;-68
2022/09/30 02:00:38;;;;;;;5.45;1.10;;;8.40;99.90;;;;;;5054043;28;20048;-68
2022/09/30 02:03:32;;;;;;;1.65;0.60;;;8.30;99.90;;;;;;5054142;28;20032;-68
2022/09/30 02:06:13;;;;;;;0.80;0.55;;;8.40;99.90;;;;;;5054280;28;20033;-68
2022/09/30 02:09:02;;;;;;;1.52;0.80;;;8.20;99.90;;;;;;5055354;28;20048;-68
2022/09/30 02:11:33;;;;;;;0.80;0.40;;;8.10;99.90;;;;;;5055119;28;20129;-68
2022/09/30 02:14:22;;;;;;;1.98;0.52;;;8.10;99.90;;;;;;5055269;28;20056;-69
2022/09/30 02:17:01;;;;;;;4.15;0.77;;;8.10;99.90;;;;;;5053742;28;20378;-68
2022/09/30 02:20:05;;;;;;;3.55;0.80;;;8.00;99.90;;;;;;5055075;28;20032;-69
2022/09/30 02:22:42;;;;;;;1.38;0.50;;;8.00;99.90;;;;;;5054508;28;20048;-68
2022/09/30 02:25:17;;;;;;;0.50;0.30;;;8.00;99.90;;;;;;5055077;28;20041;-68
2022/09/30 02:27:49;;;;;;;1.23;0.70;;;8.00;99.90;;;;;;5054733;28;20059;-68
2022/09/30 02:30:15;;;;;;;0.52;0.50;;;8.10;99.90;;;;;;5054944;28;20037;-68
2022/09/30 02:32:43;;;;;;;0.85;0.65;;;8.10;99.90;;;;;;5054737;28;20072;-68
2022/09/30 02:35:22;;;;;;;1.15;0.68;;;8.10;99.90;;;;;;5054686;28;20041;-68
2022/09/30 02:37:52;;;;;;;2.78;0.63;;;8.10;99.90;;;;;;5054596;28;20049;-69
2022/09/30 02:40:35;;;;;;;2.10;0.93;;;8.10;99.90;;;;;;5054515;28;20067;-69
2022/09/30 02:43:03;;;;;;;1.67;0.60;;;8.10;99.90;;;;;;5054566;28;20072;-69
2022/09/30 02:45:37;;;;;;;1.00;0.50;;;8.10;99.90;;;;;;5054416;28;20472;-69
2022/09/30 02:48:52;;;;;;;1.27;0.80;;;8.00;99.90;;;;;;5054423;28;20033;-68
2022/09/30 02:51:23;;;;;;;0.85;0.70;;;7.90;99.90;;;;;;5036395;28;20029;-69
2022/09/30 02:54:04;;;;;;;1.25;0.70;;;7.90;99.90;;;;;;5054426;28;20055;-68
2022/09/30 02:56:56;;;;;;;1.80;0.70;;;8.00;99.90;;;;;;5054163;28;20032;-68
2022/09/30 02:59:23;;;;;;;2.08;0.70;;;8.00;99.90;;;;;;5054453;28;20048;-68
2022/09/30 03:01:49;;;;;;;1.55;1.25;;;8.00;99.90;;;;;;5054360;28;20420;-68
2022/09/30 03:04:21;;;;;;;3.40;0.70;;;8.10;99.90;;;;;;5054162;28;20036;-68
2022/09/30 03:06:47;;;;;;;2.58;0.85;;;8.10;99.90;;;;;;5052763;28;20116;-69
2022/09/30 03:09:13;;;;;;;3.70;0.50;;;8.00;99.90;;;;;;5054180;28;20124;-68
2022/09/30 03:11:39;;;;;;;1.15;0.70;;;7.90;99.90;;;;;;5054214;28;20080;-69
2022/09/30 03:14:35;;;;;;;2.67;0.63;;;7.90;99.90;;;;;;5054155;28;20115;-69
2022/09/30 03:17:25;;;;;;;1.42;0.60;;;7.90;99.90;;;;;;5053718;28;20467;-68
2022/09/30 03:19:51;;;;;;;;;;;8.00;99.90;;;;;;5052962;28;20041;-68
2022/09/30 03:22:25;;;;;;;2.50;1.20;;;8.00;99.90;;;;;;5053995;28;20390;-68
2022/09/30 03:25:04;;;;;;;1.00;0.55;;;8.00;99.90;;;;;;5052821;28;20041;-68
2022/09/30 03:27:41;;;;;;;4.63;0.70;;;7.90;99.90;;;;;;5054137;28;20040;-68
2022/09/30 03:30:15;;;;;;;1.83;0.52;;;7.90;99.90;;;;;;5052724;28;20453;-69
2022/09/30 03:32:57;;;;;;;0.82;0.50;;;7.90;99.90;;;;;;5053952;28;20041;-68
2022/09/30 03:35:56;;;;;;;3.60;0.80;;;7.90;99.90;;;;;;5053659;28;20516;-68
2022/09/30 03:38:28;;;;;;;0.53;0.50;;;8.00;99.90;;;;;;5052391;28;20143;-69
2022/09/30 03:41:05;;;;;;;1.75;0.70;;;8.00;99.90;;;;;;5053717;28;20055;-68
2022/09/30 03:43:46;;;;;;;1.63;0.50;;;7.90;99.90;;;;;;5053793;28;20049;-68
2022/09/30 03:46:23;;;;;;;1.75;0.77;;;7.80;99.90;;;;;;5052698;28;20069;-68
2022/09/30 03:48:55;;;;;;;1.05;0.55;;;7.80;99.90;;;;;;5053779;28;20036;-68
2022/09/30 03:51:23;;;;;;;0.90;0.60;;;7.80;99.90;;;;;;5053711;28;20037;-68
2022/09/30 03:53:49;;;;;;;3.05;0.80;;;7.80;99.90;;;;;;5053804;28;20041;-68
2022/09/30 03:56:30;;;;;;;3.00;0.60;;;7.90;99.90;;;;;;5052404;28;20045;-68
2022/09/30 03:58:56;;;;;;;0.60;0.60;;;8.00;99.90;;;;;;5053796;28;20455;-69
2022/09/30 04:01:23;;;;;;;1.65;0.68;;;7.90;99.90;;;;;;5053618;28;20418;-68
2022/09/30 04:03:53;;;;;;;0.85;0.60;;;7.90;99.90;;;;;;5053583;28;20045;-68
2022/09/30 04:06:23;;;;;;;2.85;0.50;;;8.00;99.90;;;;;;5053363;28;20501;-69
2022/09/30 04:08:49;;;;;;;0.85;0.50;;;8.00;99.90;;;;;;5053483;28;20051;-68
2022/09/30 04:11:16;;;;;;;0.50;0.50;;;8.00;99.90;;;;;;5053399;28;20564;-69
2022/09/30 04:13:42;;;;;;;1.27;0.50;;;8.00;99.90;;;;;;5053600;28;20396;-68
2022/09/30 04:16:08;;;;;;;2.85;0.68;;;8.10;99.90;;;;;;5053333;28;20049;-68
2022/09/30 04:18:38;;;;;;;0.73;0.40;;;7.90;99.90;;;;;;5053718;28;20048;-68
2022/09/30 04:21:13;;;;;;;0.63;0.52;;;7.80;99.90;;;;;;5053492;28;20033;-68
2022/09/30 04:23:40;;;;;;;2.83;0.40;;;7.80;99.90;;;;;;5053505;28;20047;-68
2022/09/30 04:26:09;;;;;;;0.88;0.50;;;7.70;99.90;;;;;;5053341;28;20044;-68
2022/09/30 04:28:34;;;;;;;0.75;0.50;;;7.70;99.90;;;;;;5054590;28;20040;-69
2022/09/30 04:31:02;;;;;;;5.60;0.40;;;7.70;99.90;;;;;;5057366;28;20037;-69
2022/09/30 04:33:28;;;;;;;1.63;0.57;;;7.60;99.90;;;;;;5057147;28;20041;-68
2022/09/30 04:35:55;;;;;;;1.33;0.40;;;7.60;99.90;;;;;;5056878;28;20132;-68
2022/09/30 04:38:23;;;;;;;1.48;0.60;;;7.70;99.90;;;;;;5055583;28;20546;-69
2022/09/30 04:40:51;;;;;;;1.98;0.50;;;7.90;99.90;;;;;;5056825;28;20400;-68
2022/09/30 04:43:18;;;;;;;4.22;0.80;;;7.90;99.90;;;;;;5056883;28;20186;-68
2022/09/30 04:45:46;;;;;;;0.55;0.40;;;7.80;99.90;;;;;;5056792;28;20091;-68
2022/09/30 04:48:13;;;;;;;0.75;0.45;;;7.80;99.90;;;;;;5056786;28;20041;-68
2022/09/30 04:50:40;;;;;;;0.50;0.30;;;7.80;99.90;;;;;;5053496;28;20068;-68
2022/09/30 04:53:07;;;;;;;0.57;0.25;;;7.80;99.90;;;;;;5035517;28;20049;-68
2022/09/30 04:55:33;;;;;;;0.50;0.40;;;7.80;99.90;;;;;;5034424;28;20079;-68
2022/09/30 04:57:59;;;;;;;1.85;0.32;;;7.80;99.90;;;;;;5034997;28;20052;-68
2022/09/30 05:00:24;;;;;;;0.40;0.38;;;7.70;99.90;;;;;;5036783;28;20029;-68
2022/09/30 05:02:51;;;;;;;0.95;0.45;;;7.70;99.90;;;;;;5036629;28;20045;-68
2022/09/30 05:05:17;;;;;;;0.80;0.40;;;7.60;99.90;;;;;;5036515;28;20029;-68
2022/09/30 05:07:43;;;;;;;0.60;0.38;;;7.50;99.90;;;;;;5036479;28;20519;-68
2022/09/30 05:10:10;;;;;;;1.65;0.40;;;7.60;99.90;;;;;;5036311;28;20037;-68
2022/09/30 05:12:36;;;;;;;1.38;0.68;;;7.60;99.90;;;;;;5036392;28;20045;-68
2022/09/30 05:15:04;;;;;;;0.63;0.45;;;7.60;99.90;;;;;;5036411;28;20470;-68
2022/09/30 05:17:30;;;;;;;0.60;0.45;;;7.60;99.90;;;;;;5036128;28;20053;-68
2022/09/30 05:19:56;;;;;;;0.73;0.40;;;7.50;99.90;;;;;;5036149;28;20449;-68
2022/09/30 05:22:23;;;;;;;0.38;0.30;;;7.40;99.90;;;;;;5036010;28;20039;-68
2022/09/30 05:24:54;;;;;;;0.93;0.50;;;7.40;99.90;;;;;;5036160;28;20060;-68
2022/09/30 05:27:23;;;;;;;2.78;0.50;;;7.40;99.90;;;;;;5036337;28;20440;-68
2022/09/30 05:29:49;;;;;;;2.70;0.75;;;7.40;99.90;;;;;;5036019;28;20033;-68
2022/09/30 05:32:15;;;;;;;1.38;0.45;;;7.40;99.90;;;;;;5035349;28;20124;-68
2022/09/30 05:34:41;;;;;;;2.47;1.20;;;7.40;99.90;;;;;;5034519;28;20440;-68
2022/09/30 05:37:10;;;;;;;3.30;1.20;;;7.40;99.90;;;;;;5033501;28;20057;-68
2022/09/30 05:39:35;;;;;;;2.88;0.60;;;7.50;99.90;;;;;;5035481;28;20033;-68
2022/09/30 05:42:01;;;;;;;2.72;0.70;;;7.50;99.90;;;;;;5035949;28;20037;-68
2022/09/30 05:44:27;;;;;;;0.77;0.60;;;7.60;99.90;;;;;;5034487;28;20397;-68
2022/09/30 05:46:53;;;;;;;1.17;0.60;;;7.60;99.90;;;;;;5035840;28;20116;-68
2022/09/30 05:49:18;;;;;;;0.80;0.70;;;7.30;99.90;;;;;;5034407;28;20180;-68
2022/09/30 05:51:45;;;;;;;1.73;1.15;;;;;;;;;;5035685;28;20033;-68
2022/09/30 05:54:11;;;;;;;0.60;0.50;;;7.10;99.90;;;;;;5052217;28;20044;-68
2022/09/30 05:56:37;;;;;;;2.20;0.60;;;7.20;99.90;;;;;;5046451;28;20041;-68
2022/09/30 05:59:04;;;;;;;2.03;1.10;;;7.30;99.90;;;;;;5043448;28;20524;-68
2022/09/30 06:01:30;;;;;;;1.25;0.90;;;7.20;99.90;;;;;;5032091;28;20041;-68
2022/09/30 06:03:55;;;;;;;1.25;1.10;;;7.10;99.90;;;;;;5033553;28;20103;-68
2022/09/30 06:06:21;;;;;;;1.60;0.85;;;7.20;99.90;;;;;;5032665;28;20033;-69
2022/09/30 06:08:47;;;;;;;1.45;1.02;;;7.20;99.90;;;;;;5032157;28;20048;-68
2022/09/30 06:11:15;;;;;;;1.30;0.35;;;7.30;99.90;;;;;;5032683;28;20041;-67
2022/09/30 06:13:42;;;;;;;6.07;0.50;;;7.20;99.90;;;;;;5033177;28;20056;-67
2022/09/30 06:16:09;;;;;;;1.50;0.65;;;7.00;99.90;;;;;;5035130;28;20064;-68
2022/09/30 06:18:37;;;;;;;1.65;1.00;;;7.00;99.90;;;;;;5033914;28;20386;-69
2022/09/30 06:21:04;;;;;;;3.03;1.00;;;7.20;99.90;;;;;;5035009;28;20045;-69
2022/09/30 06:23:33;;;;;;;4.30;1.40;;;7.20;99.90;;;;;;5035312;28;20124;-68
2022/09/30 06:26:00;;;;;;;3.63;2.47;;;7.20;99.90;;;;;;5034926;28;20040;-68
2022/09/30 06:28:26;;;;;;;1.83;1.17;;;7.40;99.90;;;;;;5035098;28;20033;-68
2022/09/30 06:30:53;;;;;;;0.95;0.80;;;7.50;99.90;;;;;;5035021;28;20094;-68
2022/09/30 06:33:19;;;;;;;0.90;0.63;;;7.60;99.90;;;;;;5035116;28;20175;-68
2022/09/30 06:35:46;;;;;;;1.83;0.75;;;7.60;99.90;;;;;;5034126;28;20041;-68
2022/09/30 06:38:17;;;;;;;3.20;0.82;;;7.60;99.90;;;;;;5033188;28;20068;-68
2022/09/30 06:40:43;;;;;;;4.93;0.90;;;7.70;99.90;;;;;;5034606;28;20034;-68
2022/09/30 06:43:13;;;;;;;1.17;0.80;;;7.70;99.90;;;;;;5042610;28;20044;-68
2022/09/30 06:45:38;;;;;;;6.85;4.20;;;7.70;99.90;;;;;;5032217;28;20124;-68
2022/09/30 06:48:07;;;;;;;2.60;1.33;;;7.90;99.90;;;;;;5035409;28;20104;-68
2022/09/30 06:50:33;;;;;;;2.25;1.20;;;7.90;99.90;;;;;;5048493;28;20519;-68
2022/09/30 06:53:01;;;;;;;1.13;0.90;;;8.00;99.90;;;;;;5050495;28;20037;-68
2022/09/30 06:55:28;;;;;;;2.20;1.48;;;8.00;99.90;;;;;;5051391;28;20094;-68
2022/09/30 06:57:55;;;;;;;0.77;0.75;;;8.10;99.90;;;;;;5051625;28;20056;-68
2022/09/30 07:00:22;;;;;;;2.20;0.90;;;8.20;99.90;;;;;;5051906;28;20071;-68
2022/09/30 07:02:48;;;;;;;2.72;1.10;;;8.10;99.90;;;;;;5051900;28;20041;-68
2022/09/30 07:05:15;;;;;;;1.63;0.95;;;8.30;99.90;;;;;;5051886;28;20033;-68
2022/09/30 07:07:42;;;;;;;3.50;1.20;;;8.50;99.90;;;;;;5051873;28;20087;-68
2022/09/30 07:10:09;;;;;;;3.17;2.53;;;8.70;99.90;;;;;;5049181;28;20114;-67
2022/09/30 07:12:35;;;;;;;1.27;1.00;;;9.40;99.90;;;;;;5050602;28;20041;-68
2022/09/30 07:15:01;;;;;;;2.15;1.05;;;10.20;99.90;;;;;;5052123;28;20527;-67
2022/09/30 07:17:28;;;;;;;2.33;1.33;;;10.40;99.90;;;;;;5053709;28;20049;-68
2022/09/30 07:19:54;;;;;;;1.75;1.20;;;10.30;99.90;;;;;;5053805;28;20044;-68
2022/09/30 07:22:27;;;;;;;2.40;2.20;;;10.10;99.90;;;;;;5052923;28;20089;-67
2022/09/30 07:24:57;;;;;;;1.70;1.15;;;10.20;99.90;;;;;;5048105;28;20067;-67
2022/09/30 07:27:24;;;;;;;6.40;1.45;;;10.40;99.90;;;;;;5040811;28;20183;-67
2022/09/30 07:29:50;;;;;;;2.85;1.10;;;10.30;99.90;;;;;;5031895;28;20100;-67
2022/09/30 07:32:18;;;;;;;1.40;0.75;;;10.20;99.90;;;;;;5032140;28;20517;-67
2022/09/30 07:34:44;;;;;;;2.10;1.05;;;10.00;99.90;;;;;;5032371;28;20429;-68
2022/09/30 07:37:13;;;;;;;1.00;0.57;;;10.00;99.90;;;;;;5033319;28;20057;-68
2022/09/30 07:39:40;;;;;;;1.20;0.77;;;9.90;99.90;;;;;;5032343;28;20041;-68
2022/09/30 07:42:06;;;;;;;0.70;0.63;;;10.00;99.90;;;;;;5032023;28;20049;-68
2022/09/30 07:44:33;;;;;;;1.95;1.00;;;9.80;99.90;;;;;;5031651;28;20037;-68
2022/09/30 07:46:59;;;;;;;1.15;1.05;;;9.80;99.90;;;;;;5033613;28;20049;-68
2022/09/30 07:49:25;;;;;;;5.75;1.20;;;9.70;99.90;;;;;;5064667;28;20086;-68
2022/09/30 07:51:54;;;;;;;2.08;1.05;;;9.60;99.90;;;;;;5051320;28;20036;-68
2022/09/30 07:54:22;;;;;;;2.65;1.23;;;9.50;99.90;;;;;;5051885;28;20040;-68
2022/09/30 07:56:49;;;;;;;2.05;1.25;;;9.50;99.90;;;;;;5052792;28;20056;-68
2022/09/30 07:59:16;;;;;;;2.45;1.30;;;9.50;99.90;;;;;;5050597;28;20043;-68
2022/09/30 08:01:41;;;;;;;2.13;1.13;;;9.60;99.90;;;;;;5051676;28;20079;-68
2022/09/30 08:04:10;;;;;;;1.73;1.08;;;9.70;99.90;;;;;;5053905;28;20044;-68
2022/09/30 08:06:39;;;;;;;1.85;0.93;;;9.80;99.90;;;;;;5055127;28;20045;-68
2022/09/30 08:09:05;;;;;;;2.53;1.20;;;10.10;99.90;;;;;;5055759;28;20033;-68
2022/09/30 08:11:35;;;;;;;2.92;1.17;;;10.20;99.90;;;;;;5054370;28;20055;-68
2022/09/30 08:14:01;;;;;;;1.95;1.08;;;10.40;99.90;;;;;;5054209;28;20067;-68
2022/09/30 08:16:28;;;;;;;3.88;1.25;;;10.60;99.90;;;;;;5052889;28;20037;-68
2022/09/30 08:18:54;;;;;;;7.63;3.60;;;10.80;99.90;;;;;;5055370;28;20068;-68
2022/09/30 08:21:20;;;;;;;4.00;2.55;;;10.90;99.90;;;;;;5054845;28;20052;-68
2022/09/30 08:23:46;;;;;;;30.67;15.65;;;11.30;99.90;;;;;;5054866;28;20511;-68
2022/09/30 08:26:12;;;;;;;15.35;7.13;;;11.40;99.90;;;;;;5055197;28;20133;-68
2022/09/30 08:28:38;;;;;;;9.30;4.78;;;11.50;99.90;;;;;;5056593;28;20393;-68
2022/09/30 08:31:18;;;;;;;4.95;3.30;;;11.50;99.90;;;;;;5054852;28;20033;-68
2022/09/30 08:33:44;;;;;;;7.80;4.70;;;11.30;99.90;;;;;;5054874;28;20044;-68
2022/09/30 08:36:19;;;;;;;6.13;2.75;;;11.30;99.90;;;;;;5056004;28;20137;-68
2022/09/30 08:38:45;;;;;;;5.18;3.13;;;11.40;99.90;;;;;;5056205;28;20044;-68
2022/09/30 08:41:29;;;;;;;2.65;1.92;;;11.40;99.90;;;;;;5055826;28;20040;-68
2022/09/30 08:44:22;;;;;;;5.95;3.67;;;11.30;99.90;;;;;;5055183;28;20044;-68
2022/09/30 08:47:11;;;;;;;4.05;1.98;;;11.50;99.90;;;;;;5054355;28;20181;-68
2022/09/30 08:50:12;;;;;;;3.67;2.00;;;11.70;99.90;;;;;;5053356;28;20385;-67
2022/09/30 08:52:41;;;;;;;;;;;12.40;99.90;;;;;;5052705;28;20047;-68
2022/09/30 08:55:15;;;;;;;6.82;1.80;;;13.00;99.90;;;;;;5054407;28;19913;-68
2022/09/30 08:57:43;;;;;;;5.32;3.38;;;13.00;99.90;;;;;;5051520;28;20049;-68
2022/09/30 09:00:14;;;;;;;2.03;1.42;;;13.40;99.90;;;;;;5054138;28;20033;-68
2022/09/30 09:02:57;;;;;;;4.28;2.70;;;13.30;99.90;;;;;;5054208;28;20036;-68
2022/09/30 09:05:55;;;;;;;6.03;3.30;;;13.30;99.90;;;;;;5055642;28;20048;-67
2022/09/30 09:08:48;;;;;;;4.90;3.10;;;12.90;99.90;;;;;;5054622;28;20080;-68
2022/09/30 09:11:52;;;;;;;4.40;2.72;;;12.80;99.90;;;;;;5053104;28;20395;-68
2022/09/30 09:14:38;;;;;;;9.88;5.15;;;12.80;99.90;;;;;;5053732;28;20119;-68
2022/09/30 09:17:19;;;;;;;2.08;1.50;;;12.70;99.90;;;;;;5053861;28;20049;-68
2022/09/30 09:19:54;;;;;;;;;;;12.70;99.90;;;;;;5054231;28;20489;-68
2022/09/30 09:22:20;;;;;;;3.42;2.13;;;12.60;99.90;;;;;;5054140;28;19909;-68
2022/09/30 09:24:49;;;;;;;3.08;1.75;;;12.40;99.90;;;;;;5053754;28;20036;-68
2022/09/30 09:27:35;;;;;;;3.20;1.73;;;12.30;99.90;;;;;;5053527;28;20048;-68
2022/09/30 09:30:07;;;;;;;2.65;2.15;;;12.80;99.90;;;;;;5054170;28;20055;-68
2022/09/30 09:32:35;;;;;;;7.40;2.95;;;13.30;99.90;;;;;;5054961;28;20029;-68
2022/09/30 09:35:13;;;;;;;2.65;1.55;;;14.10;99.90;;;;;;5055397;28;20051;-68
2022/09/30 09:38:28;;;;;;;0.73;0.70;;;14.20;99.90;;;;;;5055291;28;20143;-68
2022/09/30 09:41:27;;;;;;;4.07;0.98;;;13.90;99.90;;;;;;5052746;28;20037;-68
2022/09/30 09:44:04;;;;;;;2.10;0.60;;;13.80;99.90;;;;;;5048304;28;20047;-68
2022/09/30 09:46:35;;;;;;;2.65;1.02;;;12.80;99.90;;;;;;5052984;28;20167;-68
2022/09/30 09:49:19;;;;;;;1.10;0.80;;;13.00;99.90;;;;;;5053496;28;20041;-68
2022/09/30 09:52:02;;;;;;;2.60;0.57;;;13.00;99.90;;;;;;5053226;28;20041;-68
2022/09/30 09:54:30;;;;;;;1.65;0.60;;;12.80;99.90;;;;;;5067525;28;20060;-68
2022/09/30 09:57:11;;;;;;;1.73;0.85;;;12.50;99.90;;;;;;5047106;28;20508;-68
2022/09/30 09:59:53;;;;;;;2.55;1.00;;;12.80;99.90;;;;;;5046093;28;20376;-68
2022/09/30 10:02:30;;;;;;;1.60;0.88;;;12.20;99.90;;;;;;5052257;28;20045;-68
2022/09/30 10:05:00;;;;;;;1.63;0.90;;;12.00;99.90;;;;;;5053839;28;20044;-68
2022/09/30 10:07:35;;;;;;;2.30;0.98;;;11.90;99.90;;;;;;5052613;28;20372;-68
2022/09/30 10:10:15;;;;;;;2.08;0.80;;;11.70;99.90;;;;;;5053243;28;20037;-68
2022/09/30 10:12:41;;;;;;;1.93;0.77;;;11.60;99.90;;;;;;5052138;28;20447;-68
2022/09/30 10:15:25;;;;;;;2.03;0.80;;;11.80;99.90;;;;;;5054154;28;20276;-68
2022/09/30 10:17:56;;;;;;;0.63;0.52;;;12.20;99.90;;;;;;5054970;28;20052;-67
2022/09/30 10:20:25;;;;;;;3.20;1.08;;;12.00;99.90;;;;;;5053249;28;20033;-68
2022/09/30 10:23:01;;;;;;;1.85;1.27;;;11.70;99.90;;;;;;5052687;28;20049;-68
2022/09/30 10:25:28;;;;;;;1.20;0.90;;;11.60;99.90;;;;;;5052101;28;20064;-68
2022/09/30 10:27:59;;;;;;;1.10;0.90;;;11.80;99.90;;;;;;5052410;28;20040;-68
2022/09/30 10:30:45;;;;;;;3.42;0.70;;;11.80;99.90;;;;;;5052560;28;20131;-68
2022/09/30 10:33:40;;;;;;;0.77;0.50;;;11.60;99.90;;;;;;5052923;28;20045;-68
2022/09/30 10:36:33;;;;;;;0.82;0.68;;;11.90;99.90;;;;;;5054455;28;20555;-68
2022/09/30 10:39:00;;;;;;;0.52;0.40;;;11.90;99.90;;;;;;5054749;28;20566;-68
2022/09/30 10:41:30;;;;;;;0.88;0.50;;;11.90;99.90;;;;;;5054340;28;20039;-68
2022/09/30 10:43:59;;;;;;;0.35;0.35;;;12.00;99.90;;;;;;5054697;28;20401;-68
2022/09/30 10:46:34;;;;;;;0.93;0.50;;;11.80;99.90;;;;;;5047402;28;20539;-68
2022/09/30 10:49:18;;;;;;;0.80;0.68;;;11.80;99.90;;;;;;5052639;28;20025;-68
2022/09/30 10:51:45;;;;;;;2.08;0.70;;;11.80;99.90;;;;;;5054506;28;20044;-67
2022/09/30 10:54:35;;;;;;;5.00;1.10;;;12.00;99.90;;;;;;5054642;28;20093;-67
2022/09/30 10:57:02;;;;;;;1.85;0.82;;;12.20;99.90;;;;;;5053891;28;20140;-68
2022/09/30 10:59:37;;;;;;;0.88;0.70;;;12.00;99.90;;;;;;5054609;28;20516;-68
2022/09/30 11:02:17;;;;;;;5.97;1.33;;;12.10;99.90;;;;;;5054333;28;20362;-68
2022/09/30 11:05:06;;;;;;;2.30;1.33;;;12.50;99.90;;;;;;5054412;28;20040;-68
2022/09/30 11:07:44;;;;;;;3.40;0.63;;;13.40;99.90;;;;;;5033938;28;20043;-68
2022/09/30 11:10:19;;;;;;;1.15;0.80;;;14.10;99.90;;;;;;5054285;28;20115;-68
2022/09/30 11:13:17;;;;;;;3.17;1.95;;;13.60;99.90;;;;;;5054018;28;20131;-68
2022/09/30 11:16:23;;;;;;;7.47;2.50;;;13.50;99.90;;;;;;5053870;28;20033;-68
2022/09/30 11:18:58;;;;;;;2.88;1.30;;;13.30;99.90;;;;;;5034229;28;20131;-68
2022/09/30 11:21:48;;;;;;;2.78;1.30;;;13.10;99.90;;;;;;5054199;28;20048;-68
2022/09/30 11:24:22;;;;;;;4.20;1.90;;;13.30;99.90;;;;;;5069333;28;20472;-68
2022/09/30 11:27:04;;;;;;;7.18;3.38;;;13.90;99.90;;;;;;5054001;28;20037;-68
2022/09/30 11:29:35;;;;;;;1.23;0.90;;;14.00;99.90;;;;;;5053921;28;20131;-68
2022/09/30 11:32:22;;;;;;;1.15;0.80;;;13.60;99.90;;;;;;5053925;28;20155;-68
2022/09/30 11:34:58;;;;;;;1.38;0.65;;;13.20;99.90;;;;;;5053934;28;20037;-68
2022/09/30 11:37:36;;;;;;;1.00;0.70;;;12.80;99.90;;;;;;5052459;28;20121;-68
2022/09/30 11:40:18;;;;;;;0.98;0.80;;;12.60;99.90;;;;;;5053677;28;20446;-68
2022/09/30 11:42:50;;;;;;;1.65;1.02;;;12.70;99.90;;;;;;5052415;28;20135;-68
2022/09/30 11:45:42;;;;;;;1.00;0.63;;;13.00;99.90;;;;;;5053925;28;20162;-68
2022/09/30 11:48:38;;;;;;;1.67;0.70;;;13.40;99.90;;;;;;5034136;28;20453;-68
2022/09/30 11:51:19;;;;;;;0.93;0.77;;;12.90;99.90;;;;;;5053961;28;20509;-68
2022/09/30 11:54:05;;;;;;;;;;;12.90;99.90;;;;;;5054230;28;20118;-68
2022/09/30 11:56:41;;;;;;;2.33;0.80;;;13.00;99.90;;;;;;5032075;28;19986;-68
2022/09/30 11:59:27;;;;;;;2.03;1.02;;;12.70;99.90;;;;;;5053765;28;20037;-68
2022/09/30 12:01:59;;;;;;;0.80;0.52;;;12.90;99.90;;;;;;5053711;28;20094;-68
2022/09/30 12:04:40;;;;;;;2.22;1.05;;;12.60;99.90;;;;;;5053684;28;20124;-68
2022/09/30 12:07:18;;;;;;;4.13;1.13;;;13.10;99.90;;;;;;5053599;28;20049;-68
2022/09/30 12:09:56;;;;;;;2.72;0.93;;;14.00;99.90;;;;;;5053670;28;20029;-68
2022/09/30 12:12:22;;;;;;;1.05;0.50;;;;;;;;;;5053699;28;20041;-69
2022/09/30 12:15:01;;;;;;;1.75;0.60;;;14.40;99.90;;;;;;5053621;28;20506;-68
2022/09/30 12:17:37;;;;;;;1.33;0.57;;;13.70;99.90;;;;;;5052830;28;20107;-68
2022/09/30 12:20:17;;;;;;;0.77;0.63;;;12.70;99.90;;;;;;5052184;28;20558;-68
2022/09/30 12:22:45;;;;;;;1.45;0.60;;;12.40;99.90;;;;;;5053483;28;20041;-68
2022/09/30 12:25:38;;;;;;;6.53;0.65;;;12.40;99.90;;;;;;5052003;28;20037;-68
2022/09/30 12:30:16;;;;;;;1.52;0.60;;;12.90;99.90;;;;;;5052052;28;20040;-68
2022/09/30 12:31:19;;;;;;;0.80;0.40;;;13.40;99.90;;;;;;5053322;28;20099;-68
2022/09/30 12:34:07;;;;;;;1.02;0.70;;;13.80;99.90;;;;;;5053346;28;20032;-68
2022/09/30 12:37:01;;;;;;;1.17;0.63;;;13.90;99.90;;;;;;5047426;28;20496;-68
2022/09/30 12:39:49;;;;;;;1.65;1.30;;;13.80;99.90;;;;;;5053501;28;20064;-68
2022/09/30 12:42:41;;;;;;;0.50;0.45;;;14.50;99.90;;;;;;5053113;28;20170;-69
2022/09/30 12:45:25;;;;;;;0.95;0.47;;;14.80;99.90;;;;;;5053281;28;20090;-68
2022/09/30 12:47:55;;;;;;;0.65;0.55;;;14.90;99.90;;;;;;5053313;28;20040;-68
2022/09/30 12:50:27;;;;;;;1.45;0.40;;;14.90;99.90;;;;;;5054222;28;20044;-68
2022/09/30 12:52:56;;;;;;;1.25;0.47;;;15.20;99.90;;;;;;5053061;28;20065;-68
2022/09/30 12:55:29;;;;;;;1.27;0.47;;;15.20;99.90;;;;;;5054503;28;20416;-68
2022/09/30 12:58:00;;;;;;;0.40;0.20;;;15.30;99.90;;;;;;5056774;28;20543;-68
2022/09/30 13:00:33;;;;;;;0.50;0.40;;;14.60;99.90;;;;;;5056634;28;20047;-68
2022/09/30 13:03:19;;;;;;;0.82;0.38;;;13.90;99.90;;;;;;5054129;28;20450;-68
2022/09/30 13:05:55;;;;;;;0.57;0.30;;;14.10;99.90;;;;;;5034089;28;20040;-68
2022/09/30 13:08:22;;;;;;;0.47;0.35;;;14.30;99.90;;;;;;5035901;28;20171;-68
2022/09/30 13:10:58;;;;;;;0.35;0.30;;;14.10;99.90;;;;;;5051954;28;20037;-68
2022/09/30 13:13:32;;;;;;;1.40;0.50;;;14.00;99.90;;;;;;5035049;28;20034;-68
2022/09/30 13:16:02;;;;;;;1.25;0.60;;;14.90;99.90;;;;;;5042931;28;20504;-69
2022/09/30 13:18:31;;;;;;;0.43;0.30;;;14.90;99.90;;;;;;5055964;28;20485;-68
2022/09/30 13:21:17;;;;;;;0.68;0.35;;;14.50;99.90;;;;;;5056017;28;20069;-68
2022/09/30 13:23:50;;;;;;;0.73;0.50;;;14.90;99.90;;;;;;5056116;28;20071;-69
2022/09/30 13:26:24;;;;;;;0.43;0.32;;;15.10;99.90;;;;;;5056211;28;20045;-68
2022/09/30 13:28:53;;;;;;;1.13;0.52;;;15.10;99.90;;;;;;5056126;28;20047;-68